sensor_id;sensor_type;location;lat;lon;timestamp;P1;durP1;ratioP1;P2;durP2;ratioP2
12601;SDS011;30282;16.436;99.370;2023-09-19T00:01:09;15.73;;;8.30;;
12601;SDS011;30282;16.436;99.370;2023-09-19T00:03:38;11.80;;;7.80;;
12601;SDS011;30282;16.436;99.370;2023-09-19T00:06:08;20.40;;;7.87;;
12601;SDS011;30282;16.436;99.370;2023-09-19T00:08:39;18.90;;;8.70;;
12601;SDS011;30282;16.436;99.370;2023-09-19T00:11:10;19.63;;;8.20;;
12601;SDS011;30282;16.436;99.370;2023-09-19T00:13:41;11.70;;;7.50;;
12601;SDS011;30282;16.436;99.370;2023-09-19T00:16:10;13.60;;;7.60;;
12601;SDS011;30282;16.436;99.370;2023-09-19T00:18:41;11.33;;;6.40;;
12601;SDS011;30282;16.436;99.370;2023-09-19T00:21:10;10.97;;;7.47;;
12601;SDS011;30282;16.436;99.370;2023-09-19T00:23:39;14.93;;;7.83;;
12601;SDS011;30282;16.436;99.370;2023-09-19T00:26:08;9.97;;;6.93;;
12601;SDS011;30282;16.436;99.370;2023-09-19T00:28:37;12.20;;;7.33;;
12601;SDS011;30282;16.436;99.370;2023-09-19T00:31:09;13.87;;;8.60;;
12601;SDS011;30282;16.436;99.370;2023-09-19T00:33:39;17.43;;;8.80;;
12601;SDS011;30282;16.436;99.370;2023-09-19T00:36:08;24.40;;;8.47;;
12601;SDS011;30282;16.436;99.370;2023-09-19T00:38:37;16.77;;;8.60;;
12601;SDS011;30282;16.436;99.370;2023-09-19T00:41:06;11.87;;;7.57;;
12601;SDS011;30282;16.436;99.370;2023-09-19T00:43:39;14.10;;;8.93;;
12601;SDS011;30282;16.436;99.370;2023-09-19T00:46:09;12.90;;;8.23;;
12601;SDS011;30282;16.436;99.370;2023-09-19T00:48:39;12.90;;;9.50;;
12601;SDS011;30282;16.436;99.370;2023-09-19T00:51:11;11.40;;;7.70;;
12601;SDS011;30282;16.436;99.370;2023-09-19T00:53:44;14.00;;;6.80;;
12601;SDS011;30282;16.436;99.370;2023-09-19T00:56:14;12.10;;;7.40;;
12601;SDS011;30282;16.436;99.370;2023-09-19T00:58:44;16.53;;;8.37;;
12601;SDS011;30282;16.436;99.370;2023-09-19T01:01:15;10.73;;;6.73;;
12601;SDS011;30282;16.436;99.370;2023-09-19T01:03:45;9.43;;;6.80;;
12601;SDS011;30282;16.436;99.370;2023-09-19T01:06:14;15.33;;;9.13;;
12601;SDS011;30282;16.436;99.370;2023-09-19T01:08:43;10.33;;;7.30;;
12601;SDS011;30282;16.436;99.370;2023-09-19T01:11:15;10.50;;;6.73;;
12601;SDS011;30282;16.436;99.370;2023-09-19T01:13:53;13.63;;;6.70;;
12601;SDS011;30282;16.436;99.370;2023-09-19T01:16:32;9.63;;;6.50;;
12601;SDS011;30282;16.436;99.370;2023-09-19T01:19:11;10.90;;;6.97;;
12601;SDS011;30282;16.436;99.370;2023-09-19T01:22:10;11.10;;;7.07;;
12601;SDS011;30282;16.436;99.370;2023-09-19T01:28:03;9.67;;;5.87;;
12601;SDS011;30282;16.436;99.370;2023-09-19T01:30:44;8.57;;;5.57;;
12601;SDS011;30282;16.436;99.370;2023-09-19T01:33:19;12.27;;;6.47;;
12601;SDS011;30282;16.436;99.370;2023-09-19T01:35:48;8.20;;;5.30;;
12601;SDS011;30282;16.436;99.370;2023-09-19T01:38:18;10.53;;;5.90;;
12601;SDS011;30282;16.436;99.370;2023-09-19T01:40:48;10.67;;;5.03;;
12601;SDS011;30282;16.436;99.370;2023-09-19T01:43:26;6.83;;;4.37;;
12601;SDS011;30282;16.436;99.370;2023-09-19T01:46:03;7.00;;;4.20;;
12601;SDS011;30282;16.436;99.370;2023-09-19T01:48:40;7.73;;;4.43;;
12601;SDS011;30282;16.436;99.370;2023-09-19T01:51:14;7.20;;;4.57;;
12601;SDS011;30282;16.436;99.370;2023-09-19T01:53:50;9.50;;;4.50;;
12601;SDS011;30282;16.436;99.370;2023-09-19T01:56:25;10.30;;;5.07;;
12601;SDS011;30282;16.436;99.370;2023-09-19T01:59:01;7.90;;;4.63;;
12601;SDS011;30282;16.436;99.370;2023-09-19T02:01:36;8.20;;;4.50;;
12601;SDS011;30282;16.436;99.370;2023-09-19T02:04:07;6.40;;;4.53;;
12601;SDS011;30282;16.436;99.370;2023-09-19T02:06:39;6.97;;;4.60;;
12601;SDS011;30282;16.436;99.370;2023-09-19T02:09:08;8.73;;;4.97;;
12601;SDS011;30282;16.436;99.370;2023-09-19T02:11:37;8.97;;;4.63;;
12601;SDS011;30282;16.436;99.370;2023-09-19T02:14:06;7.27;;;4.90;;
12601;SDS011;30282;16.436;99.370;2023-09-19T02:16:37;6.60;;;4.30;;
12601;SDS011;30282;16.436;99.370;2023-09-19T02:19:07;5.80;;;4.03;;
12601;SDS011;30282;16.436;99.370;2023-09-19T02:21:36;9.47;;;4.73;;
12601;SDS011;30282;16.436;99.370;2023-09-19T02:24:06;6.90;;;4.00;;
12601;SDS011;30282;16.436;99.370;2023-09-19T02:26:36;5.17;;;3.20;;
12601;SDS011;30282;16.436;99.370;2023-09-19T02:29:05;5.60;;;3.60;;
12601;SDS011;30282;16.436;99.370;2023-09-19T02:31:40;9.30;;;3.93;;
12601;SDS011;30282;16.436;99.370;2023-09-19T02:34:09;6.03;;;4.00;;
12601;SDS011;30282;16.436;99.370;2023-09-19T02:36:39;6.40;;;3.50;;
12601;SDS011;30282;16.436;99.370;2023-09-19T02:39:10;4.80;;;2.80;;
12601;SDS011;30282;16.436;99.370;2023-09-19T02:41:39;9.40;;;3.87;;
12601;SDS011;30282;16.436;99.370;2023-09-19T02:44:08;5.60;;;3.60;;
12601;SDS011;30282;16.436;99.370;2023-09-19T02:46:37;6.50;;;3.70;;
12601;SDS011;30282;16.436;99.370;2023-09-19T02:49:08;10.83;;;2.90;;
12601;SDS011;30282;16.436;99.370;2023-09-19T02:51:39;5.00;;;2.83;;
12601;SDS011;30282;16.436;99.370;2023-09-19T02:54:08;5.90;;;2.60;;
12601;SDS011;30282;16.436;99.370;2023-09-19T02:56:37;6.30;;;2.50;;
12601;SDS011;30282;16.436;99.370;2023-09-19T02:59:06;6.03;;;2.23;;
12601;SDS011;30282;16.436;99.370;2023-09-19T03:01:35;5.40;;;2.57;;
12601;SDS011;30282;16.436;99.370;2023-09-19T03:04:06;4.70;;;2.07;;
12601;SDS011;30282;16.436;99.370;2023-09-19T03:06:36;4.10;;;1.80;;
12601;SDS011;30282;16.436;99.370;2023-09-19T03:09:06;4.40;;;1.80;;
12601;SDS011;30282;16.436;99.370;2023-09-19T03:11:38;5.20;;;1.90;;
12601;SDS011;30282;16.436;99.370;2023-09-19T03:14:07;3.80;;;2.07;;
12601;SDS011;30282;16.436;99.370;2023-09-19T03:16:38;9.93;;;2.27;;
12601;SDS011;30282;16.436;99.370;2023-09-19T03:19:09;5.17;;;2.10;;
12601;SDS011;30282;16.436;99.370;2023-09-19T03:21:41;5.00;;;2.47;;
12601;SDS011;30282;16.436;99.370;2023-09-19T03:24:10;4.73;;;2.07;;
12601;SDS011;30282;16.436;99.370;2023-09-19T03:26:39;5.67;;;2.10;;
12601;SDS011;30282;16.436;99.370;2023-09-19T03:31:46;3.80;;;2.07;;
12601;SDS011;30282;16.436;99.370;2023-09-19T03:34:18;8.97;;;2.73;;
12601;SDS011;30282;16.436;99.370;2023-09-19T03:36:50;5.70;;;3.30;;
12601;SDS011;30282;16.436;99.370;2023-09-19T03:39:19;7.17;;;4.00;;
12601;SDS011;30282;16.436;99.370;2023-09-19T03:41:48;5.30;;;3.27;;
12601;SDS011;30282;16.436;99.370;2023-09-19T03:44:17;8.97;;;3.60;;
12601;SDS011;30282;16.436;99.370;2023-09-19T03:46:46;4.87;;;3.33;;
12601;SDS011;30282;16.436;99.370;2023-09-19T03:49:15;7.37;;;3.17;;
12601;SDS011;30282;16.436;99.370;2023-09-19T03:51:46;7.73;;;3.17;;
12601;SDS011;30282;16.436;99.370;2023-09-19T03:54:15;6.60;;;2.97;;
12601;SDS011;30282;16.436;99.370;2023-09-19T03:56:45;6.27;;;3.10;;
12601;SDS011;30282;16.436;99.370;2023-09-19T03:59:14;10.20;;;3.40;;
12601;SDS011;30282;16.436;99.370;2023-09-19T04:01:44;6.03;;;2.60;;
12601;SDS011;30282;16.436;99.370;2023-09-19T04:04:13;4.10;;;2.33;;
12601;SDS011;30282;16.436;99.370;2023-09-19T04:06:46;5.50;;;3.40;;
12601;SDS011;30282;16.436;99.370;2023-09-19T04:09:15;5.10;;;2.70;;
12601;SDS011;30282;16.436;99.370;2023-09-19T04:11:44;4.30;;;2.40;;
12601;SDS011;30282;16.436;99.370;2023-09-19T04:14:13;5.13;;;2.50;;
12601;SDS011;30282;16.436;99.370;2023-09-19T04:16:42;4.63;;;2.60;;
12601;SDS011;30282;16.436;99.370;2023-09-19T04:19:11;4.17;;;2.60;;
12601;SDS011;30282;16.436;99.370;2023-09-19T04:21:41;5.07;;;3.10;;
12601;SDS011;30282;16.436;99.370;2023-09-19T04:24:12;4.53;;;2.33;;
12601;SDS011;30282;16.436;99.370;2023-09-19T04:26:41;6.80;;;2.43;;
12601;SDS011;30282;16.436;99.370;2023-09-19T04:29:10;5.77;;;2.67;;
12601;SDS011;30282;16.436;99.370;2023-09-19T04:31:39;5.03;;;2.77;;
12601;SDS011;30282;16.436;99.370;2023-09-19T04:34:09;4.60;;;2.63;;
12601;SDS011;30282;16.436;99.370;2023-09-19T04:36:43;5.93;;;2.50;;
12601;SDS011;30282;16.436;99.370;2023-09-19T04:39:14;5.33;;;2.40;;
12601;SDS011;30282;16.436;99.370;2023-09-19T04:41:43;4.27;;;2.20;;
12601;SDS011;30282;16.436;99.370;2023-09-19T04:44:13;5.63;;;2.20;;
12601;SDS011;30282;16.436;99.370;2023-09-19T04:46:44;5.50;;;2.30;;
12601;SDS011;30282;16.436;99.370;2023-09-19T04:49:13;4.97;;;2.57;;
12601;SDS011;30282;16.436;99.370;2023-09-19T04:51:43;7.17;;;2.97;;
12601;SDS011;30282;16.436;99.370;2023-09-19T04:54:14;6.00;;;2.63;;
12601;SDS011;30282;16.436;99.370;2023-09-19T04:56:43;6.77;;;3.37;;
12601;SDS011;30282;16.436;99.370;2023-09-19T04:59:12;5.47;;;2.80;;
12601;SDS011;30282;16.436;99.370;2023-09-19T05:01:42;4.90;;;3.07;;
12601;SDS011;30282;16.436;99.370;2023-09-19T05:04:12;3.90;;;2.23;;
12601;SDS011;30282;16.436;99.370;2023-09-19T05:06:41;9.00;;;3.07;;
12601;SDS011;30282;16.436;99.370;2023-09-19T05:09:11;4.90;;;2.40;;
12601;SDS011;30282;16.436;99.370;2023-09-19T05:11:43;5.90;;;2.70;;
12601;SDS011;30282;16.436;99.370;2023-09-19T05:14:12;6.90;;;3.10;;
12601;SDS011;30282;16.436;99.370;2023-09-19T05:16:41;5.30;;;3.13;;
12601;SDS011;30282;16.436;99.370;2023-09-19T05:19:10;4.70;;;3.10;;
12601;SDS011;30282;16.436;99.370;2023-09-19T05:21:39;5.83;;;3.07;;
12601;SDS011;30282;16.436;99.370;2023-09-19T05:24:08;5.40;;;3.23;;
12601;SDS011;30282;16.436;99.370;2023-09-19T05:26:38;7.10;;;3.00;;
12601;SDS011;30282;16.436;99.370;2023-09-19T05:29:09;6.70;;;3.63;;
12601;SDS011;30282;16.436;99.370;2023-09-19T05:31:38;4.83;;;2.90;;
12601;SDS011;30282;16.436;99.370;2023-09-19T05:34:08;4.20;;;2.70;;
12601;SDS011;30282;16.436;99.370;2023-09-19T05:36:37;5.07;;;2.97;;
12601;SDS011;30282;16.436;99.370;2023-09-19T05:39:07;4.77;;;3.00;;
12601;SDS011;30282;16.436;99.370;2023-09-19T05:41:36;6.67;;;3.23;;
12601;SDS011;30282;16.436;99.370;2023-09-19T05:44:05;6.47;;;2.70;;
12601;SDS011;30282;16.436;99.370;2023-09-19T05:46:36;8.17;;;3.57;;
12601;SDS011;30282;16.436;99.370;2023-09-19T05:49:05;5.10;;;3.00;;
12601;SDS011;30282;16.436;99.370;2023-09-19T05:51:34;15.60;;;3.40;;
12601;SDS011;30282;16.436;99.370;2023-09-19T05:54:03;8.00;;;3.80;;
12601;SDS011;30282;16.436;99.370;2023-09-19T05:56:33;5.77;;;3.20;;
12601;SDS011;30282;16.436;99.370;2023-09-19T05:59:02;6.47;;;3.00;;
12601;SDS011;30282;16.436;99.370;2023-09-19T06:01:33;4.50;;;2.47;;
12601;SDS011;30282;16.436;99.370;2023-09-19T06:04:02;7.47;;;3.20;;
12601;SDS011;30282;16.436;99.370;2023-09-19T06:06:31;9.03;;;3.63;;
12601;SDS011;30282;16.436;99.370;2023-09-19T06:09:04;7.70;;;3.60;;
12601;SDS011;30282;16.436;99.370;2023-09-19T06:11:34;13.37;;;2.70;;
12601;SDS011;30282;16.436;99.370;2023-09-19T06:14:04;5.67;;;3.17;;
12601;SDS011;30282;16.436;99.370;2023-09-19T06:16:35;10.93;;;3.40;;
12601;SDS011;30282;16.436;99.370;2023-09-19T06:19:05;11.33;;;3.33;;
12601;SDS011;30282;16.436;99.370;2023-09-19T06:21:34;6.20;;;3.40;;
12601;SDS011;30282;16.436;99.370;2023-09-19T06:24:04;4.93;;;2.60;;
12601;SDS011;30282;16.436;99.370;2023-09-19T06:26:34;5.33;;;3.07;;
12601;SDS011;30282;16.436;99.370;2023-09-19T06:29:03;7.93;;;3.20;;
12601;SDS011;30282;16.436;99.370;2023-09-19T06:31:35;5.00;;;2.43;;
12601;SDS011;30282;16.436;99.370;2023-09-19T06:34:06;10.83;;;2.87;;
12601;SDS011;30282;16.436;99.370;2023-09-19T06:36:35;5.10;;;2.77;;
12601;SDS011;30282;16.436;99.370;2023-09-19T06:39:05;5.47;;;2.70;;
12601;SDS011;30282;16.436;99.370;2023-09-19T06:41:41;3.87;;;2.40;;
12601;SDS011;30282;16.436;99.370;2023-09-19T06:44:11;8.43;;;3.00;;
12601;SDS011;30282;16.436;99.370;2023-09-19T06:46:42;4.13;;;2.40;;
12601;SDS011;30282;16.436;99.370;2023-09-19T06:49:12;6.57;;;3.00;;
12601;SDS011;30282;16.436;99.370;2023-09-19T06:51:41;6.33;;;2.60;;
12601;SDS011;30282;16.436;99.370;2023-09-19T06:54:10;4.30;;;2.53;;
12601;SDS011;30282;16.436;99.370;2023-09-19T06:56:39;4.10;;;2.50;;
12601;SDS011;30282;16.436;99.370;2023-09-19T06:59:09;6.40;;;2.70;;
12601;SDS011;30282;16.436;99.370;2023-09-19T07:01:40;4.47;;;2.53;;
12601;SDS011;30282;16.436;99.370;2023-09-19T07:04:13;7.43;;;2.80;;
12601;SDS011;30282;16.436;99.370;2023-09-19T07:06:42;5.87;;;2.30;;
12601;SDS011;30282;16.436;99.370;2023-09-19T07:09:16;4.40;;;2.37;;
12601;SDS011;30282;16.436;99.370;2023-09-19T07:11:47;5.90;;;2.40;;
12601;SDS011;30282;16.436;99.370;2023-09-19T07:14:17;8.97;;;2.77;;
12601;SDS011;30282;16.436;99.370;2023-09-19T07:16:47;5.63;;;2.50;;
12601;SDS011;30282;16.436;99.370;2023-09-19T07:19:17;16.47;;;2.37;;
12601;SDS011;30282;16.436;99.370;2023-09-19T07:21:46;15.17;;;2.30;;
12601;SDS011;30282;16.436;99.370;2023-09-19T07:24:23;11.13;;;2.33;;
12601;SDS011;30282;16.436;99.370;2023-09-19T07:26:54;9.67;;;2.23;;
12601;SDS011;30282;16.436;99.370;2023-09-19T07:29:27;4.93;;;2.60;;
12601;SDS011;30282;16.436;99.370;2023-09-19T07:31:58;5.77;;;2.17;;
12601;SDS011;30282;16.436;99.370;2023-09-19T07:34:27;7.10;;;2.77;;
12601;SDS011;30282;16.436;99.370;2023-09-19T07:37:01;5.63;;;2.60;;
12601;SDS011;30282;16.436;99.370;2023-09-19T07:39:30;4.10;;;2.60;;
12601;SDS011;30282;16.436;99.370;2023-09-19T07:42:05;7.03;;;2.87;;
12601;SDS011;30282;16.436;99.370;2023-09-19T07:44:35;5.60;;;2.40;;
12601;SDS011;30282;16.436;99.370;2023-09-19T07:47:06;20.73;;;2.50;;
12601;SDS011;30282;16.436;99.370;2023-09-19T07:49:38;4.80;;;2.23;;
12601;SDS011;30282;16.436;99.370;2023-09-19T07:52:08;3.53;;;1.87;;
12601;SDS011;30282;16.436;99.370;2023-09-19T07:54:38;3.90;;;2.20;;
12601;SDS011;30282;16.436;99.370;2023-09-19T07:57:07;5.17;;;2.27;;
12601;SDS011;30282;16.436;99.370;2023-09-19T07:59:41;4.37;;;1.53;;
12601;SDS011;30282;16.436;99.370;2023-09-19T08:02:12;5.70;;;2.10;;
12601;SDS011;30282;16.436;99.370;2023-09-19T08:04:44;12.53;;;1.80;;
12601;SDS011;30282;16.436;99.370;2023-09-19T08:41:35;7.53;;;1.77;;
12601;SDS011;30282;16.436;99.370;2023-09-19T08:44:05;3.67;;;1.20;;
12601;SDS011;30282;16.436;99.370;2023-09-19T08:46:35;5.07;;;1.30;;
12601;SDS011;30282;16.436;99.370;2023-09-19T08:49:09;4.63;;;1.20;;
12601;SDS011;30282;16.436;99.370;2023-09-19T08:51:48;7.20;;;1.50;;
12601;SDS011;30282;16.436;99.370;2023-09-19T08:54:30;3.63;;;1.40;;
12601;SDS011;30282;16.436;99.370;2023-09-19T08:57:07;5.90;;;1.40;;
12601;SDS011;30282;16.436;99.370;2023-09-19T08:59:38;4.70;;;1.43;;
12601;SDS011;30282;16.436;99.370;2023-09-19T09:02:11;7.53;;;1.93;;
12601;SDS011;30282;16.436;99.370;2023-09-19T09:04:42;6.50;;;1.37;;
12601;SDS011;30282;16.436;99.370;2023-09-19T09:07:13;3.97;;;1.43;;
12601;SDS011;30282;16.436;99.370;2023-09-19T09:09:43;4.00;;;1.57;;
12601;SDS011;30282;16.436;99.370;2023-09-19T09:12:14;3.50;;;1.43;;
12601;SDS011;30282;16.436;99.370;2023-09-19T09:14:44;5.63;;;1.47;;
12601;SDS011;30282;16.436;99.370;2023-09-19T09:17:15;6.27;;;2.00;;
12601;SDS011;30282;16.436;99.370;2023-09-19T09:19:46;5.50;;;2.00;;
12601;SDS011;30282;16.436;99.370;2023-09-19T09:22:15;4.40;;;1.60;;
12601;SDS011;30282;16.436;99.370;2023-09-19T09:24:51;8.83;;;2.03;;
12601;SDS011;30282;16.436;99.370;2023-09-19T09:27:25;9.03;;;1.73;;
12601;SDS011;30282;16.436;99.370;2023-09-19T09:29:54;5.43;;;2.10;;
12601;SDS011;30282;16.436;99.370;2023-09-19T09:32:24;4.57;;;2.13;;
12601;SDS011;30282;16.436;99.370;2023-09-19T09:34:54;4.30;;;2.33;;
12601;SDS011;30282;16.436;99.370;2023-09-19T09:37:24;5.50;;;2.20;;
12601;SDS011;30282;16.436;99.370;2023-09-19T09:39:56;6.20;;;2.00;;
12601;SDS011;30282;16.436;99.370;2023-09-19T09:42:46;7.83;;;1.90;;
12601;SDS011;30282;16.436;99.370;2023-09-19T09:45:18;9.63;;;2.20;;
12601;SDS011;30282;16.436;99.370;2023-09-19T09:47:54;5.33;;;1.73;;
12601;SDS011;30282;16.436;99.370;2023-09-19T09:50:26;3.47;;;1.50;;
12601;SDS011;30282;16.436;99.370;2023-09-19T09:53:06;4.77;;;1.60;;
12601;SDS011;30282;16.436;99.370;2023-09-19T09:55:57;10.83;;;2.00;;
12601;SDS011;30282;16.436;99.370;2023-09-19T09:58:33;5.10;;;2.20;;
12601;SDS011;30282;16.436;99.370;2023-09-19T10:01:03;5.10;;;2.17;;
12601;SDS011;30282;16.436;99.370;2023-09-19T10:03:35;6.93;;;2.00;;
12601;SDS011;30282;16.436;99.370;2023-09-19T10:06:13;8.67;;;2.43;;
12601;SDS011;30282;16.436;99.370;2023-09-19T10:09:00;9.83;;;2.37;;
12601;SDS011;30282;16.436;99.370;2023-09-19T10:11:41;6.60;;;2.20;;
12601;SDS011;30282;16.436;99.370;2023-09-19T10:14:15;7.83;;;2.00;;
12601;SDS011;30282;16.436;99.370;2023-09-19T10:16:51;7.57;;;2.10;;
12601;SDS011;30282;16.436;99.370;2023-09-19T10:19:28;13.43;;;2.77;;
12601;SDS011;30282;16.436;99.370;2023-09-19T10:22:01;4.97;;;2.40;;
12601;SDS011;30282;16.436;99.370;2023-09-19T10:24:35;7.40;;;2.50;;
12601;SDS011;30282;16.436;99.370;2023-09-19T10:27:06;6.67;;;2.77;;
12601;SDS011;30282;16.436;99.370;2023-09-19T10:29:37;5.70;;;2.43;;
12601;SDS011;30282;16.436;99.370;2023-09-19T10:32:08;11.87;;;3.10;;
12601;SDS011;30282;16.436;99.370;2023-09-19T10:34:44;8.73;;;2.40;;
12601;SDS011;30282;16.436;99.370;2023-09-19T10:37:15;8.60;;;2.90;;
12601;SDS011;30282;16.436;99.370;2023-09-19T10:39:46;5.90;;;3.03;;
12601;SDS011;30282;16.436;99.370;2023-09-19T10:42:18;5.67;;;2.50;;
12601;SDS011;30282;16.436;99.370;2023-09-19T10:44:51;7.30;;;2.37;;
12601;SDS011;30282;16.436;99.370;2023-09-19T10:47:21;5.50;;;2.00;;
12601;SDS011;30282;16.436;99.370;2023-09-19T10:49:51;5.47;;;2.03;;
12601;SDS011;30282;16.436;99.370;2023-09-19T10:52:21;6.20;;;2.10;;
12601;SDS011;30282;16.436;99.370;2023-09-19T10:54:53;5.10;;;1.70;;
12601;SDS011;30282;16.436;99.370;2023-09-19T10:57:26;4.80;;;1.90;;
12601;SDS011;30282;16.436;99.370;2023-09-19T11:00:05;10.63;;;2.10;;
12601;SDS011;30282;16.436;99.370;2023-09-19T11:06:02;7.70;;;2.33;;
12601;SDS011;30282;16.436;99.370;2023-09-19T11:08:56;12.10;;;2.13;;
12601;SDS011;30282;16.436;99.370;2023-09-19T11:11:48;7.73;;;2.00;;
12601;SDS011;30282;16.436;99.370;2023-09-19T11:14:37;4.83;;;2.30;;
12601;SDS011;30282;16.436;99.370;2023-09-19T11:23:21;7.47;;;2.30;;
12601;SDS011;30282;16.436;99.370;2023-09-19T11:25:54;15.97;;;2.20;;
12601;SDS011;30282;16.436;99.370;2023-09-19T11:28:43;8.40;;;2.20;;
12601;SDS011;30282;16.436;99.370;2023-09-19T11:34:41;9.83;;;2.10;;
12601;SDS011;30282;16.436;99.370;2023-09-19T11:40:44;8.50;;;2.10;;
12601;SDS011;30282;16.436;99.370;2023-09-19T11:43:30;7.33;;;2.03;;
12601;SDS011;30282;16.436;99.370;2023-09-19T11:46:03;7.60;;;2.50;;
12601;SDS011;30282;16.436;99.370;2023-09-19T11:48:33;18.03;;;3.00;;
12601;SDS011;30282;16.436;99.370;2023-09-19T11:51:15;8.20;;;2.10;;
12601;SDS011;30282;16.436;99.370;2023-09-19T11:53:54;8.67;;;2.50;;
12601;SDS011;30282;16.436;99.370;2023-09-19T11:56:25;7.23;;;2.63;;
12601;SDS011;30282;16.436;99.370;2023-09-19T11:58:57;10.07;;;2.33;;
12601;SDS011;30282;16.436;99.370;2023-09-19T12:01:29;13.23;;;2.60;;
12601;SDS011;30282;16.436;99.370;2023-09-19T12:04:00;19.77;;;3.17;;
12601;SDS011;30282;16.436;99.370;2023-09-19T12:06:32;10.77;;;2.97;;
12601;SDS011;30282;16.436;99.370;2023-09-19T12:09:01;11.80;;;3.20;;
12601;SDS011;30282;16.436;99.370;2023-09-19T12:11:40;9.33;;;2.70;;
12601;SDS011;30282;16.436;99.370;2023-09-19T12:14:10;8.30;;;3.13;;
12601;SDS011;30282;16.436;99.370;2023-09-19T12:16:39;16.10;;;3.43;;
12601;SDS011;30282;16.436;99.370;2023-09-19T12:19:21;6.00;;;2.90;;
12601;SDS011;30282;16.436;99.370;2023-09-19T12:22:01;7.40;;;2.53;;
12601;SDS011;30282;16.436;99.370;2023-09-19T12:24:31;9.80;;;3.00;;
12601;SDS011;30282;16.436;99.370;2023-09-19T12:27:04;13.70;;;3.90;;
12601;SDS011;30282;16.436;99.370;2023-09-19T12:29:44;19.97;;;3.40;;
12601;SDS011;30282;16.436;99.370;2023-09-19T12:32:15;12.53;;;3.33;;
12601;SDS011;30282;16.436;99.370;2023-09-19T12:34:53;14.77;;;3.60;;
12601;SDS011;30282;16.436;99.370;2023-09-19T12:37:24;14.73;;;3.70;;
12601;SDS011;30282;16.436;99.370;2023-09-19T12:40:03;12.17;;;3.13;;
12601;SDS011;30282;16.436;99.370;2023-09-19T12:42:41;8.17;;;3.30;;
12601;SDS011;30282;16.436;99.370;2023-09-19T12:45:11;7.30;;;3.13;;
12601;SDS011;30282;16.436;99.370;2023-09-19T12:51:00;15.60;;;3.60;;
12601;SDS011;30282;16.436;99.370;2023-09-19T12:53:37;11.17;;;3.27;;
12601;SDS011;30282;16.436;99.370;2023-09-19T12:56:17;5.90;;;3.10;;
12601;SDS011;30282;16.436;99.370;2023-09-19T12:58:55;9.30;;;3.70;;
12601;SDS011;30282;16.436;99.370;2023-09-19T13:01:26;5.23;;;2.90;;
12601;SDS011;30282;16.436;99.370;2023-09-19T13:04:14;7.73;;;3.17;;
12601;SDS011;30282;16.436;99.370;2023-09-19T13:06:52;10.17;;;3.17;;
12601;SDS011;30282;16.436;99.370;2023-09-19T13:09:28;27.47;;;4.30;;
12601;SDS011;30282;16.436;99.370;2023-09-19T13:12:00;14.37;;;3.80;;
12601;SDS011;30282;16.436;99.370;2023-09-19T13:14:29;14.43;;;3.30;;
12601;SDS011;30282;16.436;99.370;2023-09-19T13:17:05;14.83;;;3.30;;
12601;SDS011;30282;16.436;99.370;2023-09-19T13:19:42;18.37;;;3.83;;
12601;SDS011;30282;16.436;99.370;2023-09-19T13:25:10;6.13;;;3.10;;
12601;SDS011;30282;16.436;99.370;2023-09-19T13:27:44;13.47;;;4.00;;
12601;SDS011;30282;16.436;99.370;2023-09-19T13:30:14;15.97;;;4.07;;
12601;SDS011;30282;16.436;99.370;2023-09-19T13:32:43;10.30;;;3.57;;
12601;SDS011;30282;16.436;99.370;2023-09-19T13:35:18;15.03;;;3.37;;
12601;SDS011;30282;16.436;99.370;2023-09-19T13:37:47;11.83;;;3.50;;
12601;SDS011;30282;16.436;99.370;2023-09-19T13:40:19;14.50;;;3.93;;
12601;SDS011;30282;16.436;99.370;2023-09-19T13:42:50;7.83;;;3.80;;
12601;SDS011;30282;16.436;99.370;2023-09-19T13:45:19;12.23;;;4.30;;
12601;SDS011;30282;16.436;99.370;2023-09-19T13:47:50;12.70;;;4.13;;
12601;SDS011;30282;16.436;99.370;2023-09-19T13:50:22;11.03;;;3.80;;
12601;SDS011;30282;16.436;99.370;2023-09-19T13:52:54;10.93;;;4.10;;
12601;SDS011;30282;16.436;99.370;2023-09-19T13:55:27;8.80;;;3.93;;
12601;SDS011;30282;16.436;99.370;2023-09-19T13:57:57;12.87;;;4.17;;
12601;SDS011;30282;16.436;99.370;2023-09-19T14:00:26;9.63;;;3.90;;
12601;SDS011;30282;16.436;99.370;2023-09-19T14:02:56;8.90;;;3.47;;
12601;SDS011;30282;16.436;99.370;2023-09-19T14:05:26;13.03;;;4.50;;
12601;SDS011;30282;16.436;99.370;2023-09-19T14:07:55;13.60;;;3.50;;
12601;SDS011;30282;16.436;99.370;2023-09-19T14:10:27;9.53;;;3.67;;
12601;SDS011;30282;16.436;99.370;2023-09-19T14:12:57;10.73;;;3.77;;
12601;SDS011;30282;16.436;99.370;2023-09-19T14:15:27;8.60;;;3.63;;
12601;SDS011;30282;16.436;99.370;2023-09-19T14:17:58;9.50;;;3.80;;
12601;SDS011;30282;16.436;99.370;2023-09-19T14:20:27;15.00;;;3.73;;
12601;SDS011;30282;16.436;99.370;2023-09-19T14:22:57;9.53;;;3.40;;
12601;SDS011;30282;16.436;99.370;2023-09-19T14:25:29;11.03;;;3.50;;
12601;SDS011;30282;16.436;99.370;2023-09-19T14:27:58;8.17;;;3.70;;
12601;SDS011;30282;16.436;99.370;2023-09-19T14:30:27;11.23;;;3.70;;
12601;SDS011;30282;16.436;99.370;2023-09-19T14:32:59;13.83;;;3.37;;
12601;SDS011;30282;16.436;99.370;2023-09-19T14:35:37;8.73;;;3.33;;
12601;SDS011;30282;16.436;99.370;2023-09-19T14:38:06;8.73;;;3.30;;
12601;SDS011;30282;16.436;99.370;2023-09-19T14:40:36;10.10;;;4.00;;
12601;SDS011;30282;16.436;99.370;2023-09-19T14:43:09;8.30;;;3.23;;
12601;SDS011;30282;16.436;99.370;2023-09-19T14:45:38;12.67;;;3.87;;
12601;SDS011;30282;16.436;99.370;2023-09-19T14:48:07;7.50;;;3.17;;
12601;SDS011;30282;16.436;99.370;2023-09-19T14:50:36;7.23;;;3.40;;
12601;SDS011;30282;16.436;99.370;2023-09-19T14:53:11;10.73;;;3.27;;
12601;SDS011;30282;16.436;99.370;2023-09-19T14:55:45;14.27;;;3.57;;
12601;SDS011;30282;16.436;99.370;2023-09-19T14:58:17;11.40;;;3.37;;
12601;SDS011;30282;16.436;99.370;2023-09-19T15:00:47;8.73;;;3.13;;
12601;SDS011;30282;16.436;99.370;2023-09-19T15:03:18;16.30;;;4.50;;
12601;SDS011;30282;16.436;99.370;2023-09-19T15:05:47;14.33;;;4.37;;
12601;SDS011;30282;16.436;99.370;2023-09-19T15:08:17;12.10;;;3.53;;
12601;SDS011;30282;16.436;99.370;2023-09-19T15:10:54;7.73;;;3.80;;
12601;SDS011;30282;16.436;99.370;2023-09-19T15:13:26;12.07;;;3.33;;
12601;SDS011;30282;16.436;99.370;2023-09-19T15:16:01;11.77;;;3.43;;
12601;SDS011;30282;16.436;99.370;2023-09-19T15:18:30;14.27;;;4.10;;
12601;SDS011;30282;16.436;99.370;2023-09-19T15:21:19;9.40;;;3.40;;
12601;SDS011;30282;16.436;99.370;2023-09-19T15:23:49;12.07;;;3.80;;
12601;SDS011;30282;16.436;99.370;2023-09-19T15:26:25;12.73;;;3.10;;
12601;SDS011;30282;16.436;99.370;2023-09-19T15:28:54;13.90;;;3.23;;
12601;SDS011;30282;16.436;99.370;2023-09-19T15:31:23;8.13;;;3.73;;
12601;SDS011;30282;16.436;99.370;2023-09-19T15:33:58;10.67;;;3.50;;
12601;SDS011;30282;16.436;99.370;2023-09-19T15:36:28;15.23;;;3.80;;
12601;SDS011;30282;16.436;99.370;2023-09-19T15:38:57;20.63;;;3.70;;
12601;SDS011;30282;16.436;99.370;2023-09-19T15:41:30;9.77;;;4.00;;
12601;SDS011;30282;16.436;99.370;2023-09-19T15:44:00;15.00;;;3.60;;
12601;SDS011;30282;16.436;99.370;2023-09-19T15:46:42;8.33;;;3.40;;
12601;SDS011;30282;16.436;99.370;2023-09-19T15:49:11;10.43;;;3.40;;
12601;SDS011;30282;16.436;99.370;2023-09-19T15:51:40;11.10;;;3.23;;
12601;SDS011;30282;16.436;99.370;2023-09-19T15:54:09;8.67;;;3.20;;
12601;SDS011;30282;16.436;99.370;2023-09-19T15:56:42;6.60;;;3.50;;
12601;SDS011;30282;16.436;99.370;2023-09-19T15:59:11;12.60;;;2.83;;
12601;SDS011;30282;16.436;99.370;2023-09-19T16:01:41;12.70;;;3.30;;